Terminal Aerodrome Forecast
Issued by NWS

Home | Current Version | Previous Version | Text Only | Print | Product List | Glossary On
Versions: 1 2 3 4 5 6 7 8 9 10 11 12 13
493
FTUS45 KRIW 090526
TAFCOD
TAF
KCOD 090526Z 0906/1006 VRB05KT P6SM SCT250
     FM091800 05007KT P6SM SCT250
     FM100100 20006KT P6SM SCT250
      AMD LTD TO CLD VIS AND WIND=

USA.gov is the U.S. government's official web portal to all federal, state and local government web resources and services.